Killeen, Texas
Current Conditions -  °F | °C
As of 6:28 PM on Thursday 18 Dec 2014 (Local Time) from KHLR Reporting Station
Overcast Overcast  
Wind Chill: 52°   Ceiling: 900
Heat Index: 52°   Visibility: 10mi
Dew Point: 48°   Wind: 10mph
Humidity: 88%   Direction: 40°NE
Pressure: 30.08"   Gusts: 17mph
Location:  31.12°N, 97.73°W
Report Text: KHLR 190028Z AUTO 04009G15KT 10SM OVC009 11/09 A3008 RMK AO2
Loading
Personal Weather Stations






























Interactive Weather Map New forecast layout! Learn more

10-Day Weather Forecast

Advertisements
Track Severe Weather on mobile